sensor_id;sensor_type;location;lat;lon;timestamp;pressure;altitude;pressure_sealevel;temperature;humidity
38852;BME280;24605;50.092;9.182;2023-06-19T00:02:11;97447.44;;;24.06;35.83
38852;BME280;24605;50.092;9.182;2023-06-19T00:04:38;97449.56;;;24.14;35.35
38852;BME280;24605;50.092;9.182;2023-06-19T00:07:04;97447.69;;;24.25;34.45
38852;BME280;24605;50.092;9.182;2023-06-19T00:09:32;97439.63;;;24.35;33.74
38852;BME280;24605;50.092;9.182;2023-06-19T00:11:58;97429.19;;;24.29;33.34
38852;BME280;24605;50.092;9.182;2023-06-19T00:14:26;97401.34;;;24.14;33.38
38852;BME280;24605;50.092;9.182;2023-06-19T00:16:54;97420.59;;;24.27;33.58
38852;BME280;24605;50.092;9.182;2023-06-19T00:19:21;97420.38;;;24.18;34.15
38852;BME280;24605;50.092;9.182;2023-06-19T00:21:48;97408.31;;;24.10;33.75
38852;BME280;24605;50.092;9.182;2023-06-19T00:24:14;97418.47;;;24.29;33.64
38852;BME280;24605;50.092;9.182;2023-06-19T00:26:41;97423.56;;;24.25;33.72
38852;BME280;24605;50.092;9.182;2023-06-19T00:29:07;97420.38;;;24.07;34.61
38852;BME280;24605;50.092;9.182;2023-06-19T00:31:34;97407.25;;;24.11;34.42
38852;BME280;24605;50.092;9.182;2023-06-19T00:34:03;97416.63;;;24.19;33.82
38852;BME280;24605;50.092;9.182;2023-06-19T00:36:30;97415.53;;;24.15;34.21
38852;BME280;24605;50.092;9.182;2023-06-19T00:38:57;97415.31;;;24.06;34.11
38852;BME280;24605;50.092;9.182;2023-06-19T00:41:25;97401.63;;;23.97;34.30
38852;BME280;24605;50.092;9.182;2023-06-19T00:43:52;97413.97;;;23.98;34.30
38852;BME280;24605;50.092;9.182;2023-06-19T00:46:19;97410.72;;;23.86;34.84
38852;BME280;24605;50.092;9.182;2023-06-19T00:48:45;97403.50;;;23.81;34.55
38852;BME280;24605;50.092;9.182;2023-06-19T00:51:13;97414.19;;;23.91;34.82
38852;BME280;24605;50.092;9.182;2023-06-19T00:53:40;97416.34;;;23.74;35.06
38852;BME280;24605;50.092;9.182;2023-06-19T00:56:07;97408.59;;;23.72;34.84
38852;BME280;24605;50.092;9.182;2023-06-19T00:58:33;97412.06;;;23.78;34.95
38852;BME280;24605;50.092;9.182;2023-06-19T01:01:00;97395.72;;;23.69;35.14
38852;BME280;24605;50.092;9.182;2023-06-19T01:03:27;97404.59;;;23.70;35.28
38852;BME280;24605;50.092;9.182;2023-06-19T01:05:54;97413.13;;;23.67;35.31
38852;BME280;24605;50.092;9.182;2023-06-19T01:08:37;97393.59;;;23.51;35.10
38852;BME280;24605;50.092;9.182;2023-06-19T01:11:09;97405.09;;;23.41;35.98
38852;BME280;24605;50.092;9.182;2023-06-19T01:13:41;97403.50;;;23.35;36.00
38852;BME280;24605;50.092;9.182;2023-06-19T01:16:10;97392.75;;;23.29;35.79
38852;BME280;24605;50.092;9.182;2023-06-19T01:18:37;97397.56;;;23.22;35.99
38852;BME280;24605;50.092;9.182;2023-06-19T01:21:11;97401.22;;;22.90;36.26
38852;BME280;24605;50.092;9.182;2023-06-19T01:23:39;97357.78;;;22.52;37.26
38852;BME280;24605;50.092;9.182;2023-06-19T01:26:06;97390.53;;;22.95;36.57
38852;BME280;24605;50.092;9.182;2023-06-19T01:28:34;97389.44;;;22.86;36.77
38852;BME280;24605;50.092;9.182;2023-06-19T01:31:03;97387.31;;;22.83;36.94
38852;BME280;24605;50.092;9.182;2023-06-19T01:33:33;97385.69;;;22.82;36.63
38852;BME280;24605;50.092;9.182;2023-06-19T01:36:01;97383.78;;;22.72;37.53
38852;BME280;24605;50.092;9.182;2023-06-19T01:38:29;97381.88;;;22.67;37.43
38852;BME280;24605;50.092;9.182;2023-06-19T01:40:59;97375.44;;;22.58;37.21
38852;BME280;24605;50.092;9.182;2023-06-19T01:43:28;97386.66;;;22.55;37.50
38852;BME280;24605;50.092;9.182;2023-06-19T01:45:56;97390.34;;;22.49;37.36
38852;BME280;24605;50.092;9.182;2023-06-19T01:48:23;97390.88;;;22.46;37.52
38852;BME280;24605;50.092;9.182;2023-06-19T01:50:50;97402.59;;;22.40;37.64
38852;BME280;24605;50.092;9.182;2023-06-19T01:53:17;97396.34;;;22.23;38.17
38852;BME280;24605;50.092;9.182;2023-06-19T01:55:43;97397.13;;;22.24;38.20
38852;BME280;24605;50.092;9.182;2023-06-19T01:58:12;97403.03;;;22.21;38.67
38852;BME280;24605;50.092;9.182;2023-06-19T02:00:38;97393.81;;;22.01;39.46
38852;BME280;24605;50.092;9.182;2023-06-19T02:03:05;97368.03;;;21.80;39.40
38852;BME280;24605;50.092;9.182;2023-06-19T02:05:32;97348.47;;;21.64;39.66
38852;BME280;24605;50.092;9.182;2023-06-19T02:07:59;97374.25;;;21.90;39.48
38852;BME280;24605;50.092;9.182;2023-06-19T02:10:26;97399.84;;;21.86;39.98
38852;BME280;24605;50.092;9.182;2023-06-19T02:12:52;97377.84;;;21.74;41.28
38852;BME280;24605;50.092;9.182;2023-06-19T02:15:20;97394.16;;;21.78;40.92
38852;BME280;24605;50.092;9.182;2023-06-19T02:17:46;97401.88;;;21.74;41.50
38852;BME280;24605;50.092;9.182;2023-06-19T02:20:13;97397.06;;;21.71;41.62
38852;BME280;24605;50.092;9.182;2023-06-19T02:22:40;97397.72;;;21.56;42.65
38852;BME280;24605;50.092;9.182;2023-06-19T02:25:07;97410.91;;;21.68;42.32
38852;BME280;24605;50.092;9.182;2023-06-19T02:27:33;97411.72;;;21.68;42.78
38852;BME280;24605;50.092;9.182;2023-06-19T02:30:00;97415.16;;;21.64;43.97
38852;BME280;24605;50.092;9.182;2023-06-19T02:32:28;97393.34;;;21.44;44.03
38852;BME280;24605;50.092;9.182;2023-06-19T02:34:54;97370.72;;;21.20;45.12
38852;BME280;24605;50.092;9.182;2023-06-19T02:37:21;97421.16;;;21.54;44.77
38852;BME280;24605;50.092;9.182;2023-06-19T02:39:47;97427.25;;;21.49;43.58
38852;BME280;24605;50.092;9.182;2023-06-19T02:42:14;97438.34;;;21.63;43.13
38852;BME280;24605;50.092;9.182;2023-06-19T02:44:41;97439.50;;;21.72;42.87
38852;BME280;24605;50.092;9.182;2023-06-19T02:47:08;97422.03;;;21.32;44.62
38852;BME280;24605;50.092;9.182;2023-06-19T02:49:36;97450.19;;;21.23;44.14
38852;BME280;24605;50.092;9.182;2023-06-19T02:52:04;97446.94;;;21.16;45.27
38852;BME280;24605;50.092;9.182;2023-06-19T02:54:31;97453.97;;;21.27;43.99
38852;BME280;24605;50.092;9.182;2023-06-19T02:56:57;97460.00;;;21.44;42.86
38852;BME280;24605;50.092;9.182;2023-06-19T02:59:25;97444.75;;;21.40;43.46
38852;BME280;24605;50.092;9.182;2023-06-19T03:01:51;97475.22;;;21.44;43.09
38852;BME280;24605;50.092;9.182;2023-06-19T03:04:18;97461.72;;;21.28;43.76
38852;BME280;24605;50.092;9.182;2023-06-19T03:06:46;97473.78;;;21.36;43.94
38852;BME280;24605;50.092;9.182;2023-06-19T03:09:12;97474.72;;;21.25;44.53
38852;BME280;24605;50.092;9.182;2023-06-19T03:11:39;97487.56;;;21.28;44.12
38852;BME280;24605;50.092;9.182;2023-06-19T03:14:06;97479.56;;;21.28;44.44
38852;BME280;24605;50.092;9.182;2023-06-19T03:16:34;97481.03;;;21.13;45.05
38852;BME280;24605;50.092;9.182;2023-06-19T03:19:01;97487.22;;;21.19;44.99
38852;BME280;24605;50.092;9.182;2023-06-19T03:21:27;97479.91;;;21.09;45.33
38852;BME280;24605;50.092;9.182;2023-06-19T03:23:55;97482.06;;;21.12;45.75
38852;BME280;24605;50.092;9.182;2023-06-19T03:26:22;97482.50;;;21.04;46.24
38852;BME280;24605;50.092;9.182;2023-06-19T03:28:50;97499.56;;;21.03;47.25
38852;BME280;24605;50.092;9.182;2023-06-19T03:31:16;97503.44;;;21.18;47.42
38852;BME280;24605;50.092;9.182;2023-06-19T03:33:43;97503.41;;;21.12;48.78
38852;BME280;24605;50.092;9.182;2023-06-19T03:36:09;97500.34;;;21.04;49.73
38852;BME280;24605;50.092;9.182;2023-06-19T03:38:36;97504.56;;;21.00;50.81
38852;BME280;24605;50.092;9.182;2023-06-19T03:41:04;97495.09;;;20.87;51.51
38852;BME280;24605;50.092;9.182;2023-06-19T03:43:30;97505.97;;;21.07;51.75
38852;BME280;24605;50.092;9.182;2023-06-19T03:45:57;97521.81;;;21.14;53.29
38852;BME280;24605;50.092;9.182;2023-06-19T03:48:23;97512.63;;;21.05;53.07
38852;BME280;24605;50.092;9.182;2023-06-19T03:50:50;97528.38;;;21.06;53.85
38852;BME280;24605;50.092;9.182;2023-06-19T03:53:16;97524.84;;;21.01;54.58
38852;BME280;24605;50.092;9.182;2023-06-19T03:55:43;97526.38;;;21.19;55.34
38852;BME280;24605;50.092;9.182;2023-06-19T03:58:11;97522.72;;;21.25;55.58
38852;BME280;24605;50.092;9.182;2023-06-19T04:00:38;97524.28;;;21.21;56.42
38852;BME280;24605;50.092;9.182;2023-06-19T04:03:06;97528.00;;;21.20;56.54
38852;BME280;24605;50.092;9.182;2023-06-19T04:05:34;97532.91;;;21.28;57.20
38852;BME280;24605;50.092;9.182;2023-06-19T04:08:01;97542.38;;;21.41;57.35
38852;BME280;24605;50.092;9.182;2023-06-19T04:10:28;97527.00;;;21.26;57.26
38852;BME280;24605;50.092;9.182;2023-06-19T04:12:55;97548.03;;;21.44;57.51
38852;BME280;24605;50.092;9.182;2023-06-19T04:15:23;97552.91;;;21.53;58.17
38852;BME280;24605;50.092;9.182;2023-06-19T04:17:49;97552.03;;;21.69;58.84
38852;BME280;24605;50.092;9.182;2023-06-19T04:20:16;97541.59;;;21.63;60.07
38852;BME280;24605;50.092;9.182;2023-06-19T04:22:42;97556.63;;;21.74;60.22
38852;BME280;24605;50.092;9.182;2023-06-19T04:25:09;97535.38;;;21.57;60.83
38852;BME280;24605;50.092;9.182;2023-06-19T04:27:36;97567.88;;;21.76;61.38
38852;BME280;24605;50.092;9.182;2023-06-19T04:30:03;97565.09;;;21.66;62.08
38852;BME280;24605;50.092;9.182;2023-06-19T04:32:33;97550.69;;;21.67;61.98
38852;BME280;24605;50.092;9.182;2023-06-19T04:34:59;97564.41;;;21.75;62.13
38852;BME280;24605;50.092;9.182;2023-06-19T04:37:26;97569.44;;;21.72;62.69
38852;BME280;24605;50.092;9.182;2023-06-19T04:39:52;97574.03;;;21.77;62.47
38852;BME280;24605;50.092;9.182;2023-06-19T04:42:19;97580.19;;;21.82;62.33
38852;BME280;24605;50.092;9.182;2023-06-19T04:44:46;97577.50;;;21.77;62.55
38852;BME280;24605;50.092;9.182;2023-06-19T04:47:12;97576.44;;;21.78;62.24
38852;BME280;24605;50.092;9.182;2023-06-19T04:49:40;97584.13;;;21.74;62.48
38852;BME280;24605;50.092;9.182;2023-06-19T04:52:07;97579.91;;;21.79;63.13
38852;BME280;24605;50.092;9.182;2023-06-19T04:54:33;97583.72;;;21.88;62.72
38852;BME280;24605;50.092;9.182;2023-06-19T04:57:00;97581.06;;;21.88;62.64
38852;BME280;24605;50.092;9.182;2023-06-19T04:59:27;97596.03;;;21.89;62.92
38852;BME280;24605;50.092;9.182;2023-06-19T05:01:55;97602.81;;;21.74;63.65
38852;BME280;24605;50.092;9.182;2023-06-19T05:04:22;97571.91;;;21.34;64.37
38852;BME280;24605;50.092;9.182;2023-06-19T05:06:50;97605.94;;;21.49;64.81
38852;BME280;24605;50.092;9.182;2023-06-19T05:09:16;97612.66;;;21.52;65.58
38852;BME280;24605;50.092;9.182;2023-06-19T05:11:43;97600.63;;;21.49;65.32
38852;BME280;24605;50.092;9.182;2023-06-19T05:14:10;97617.34;;;21.62;65.31
38852;BME280;24605;50.092;9.182;2023-06-19T05:16:36;97613.53;;;21.57;65.37
38852;BME280;24605;50.092;9.182;2023-06-19T05:19:03;97612.53;;;21.41;66.38
38852;BME280;24605;50.092;9.182;2023-06-19T05:21:30;97618.19;;;21.45;66.58
38852;BME280;24605;50.092;9.182;2023-06-19T05:23:58;97617.97;;;21.52;65.93
38852;BME280;24605;50.092;9.182;2023-06-19T05:26:24;97628.78;;;21.40;67.30
38852;BME280;24605;50.092;9.182;2023-06-19T05:28:52;97623.09;;;21.53;66.56
38852;BME280;24605;50.092;9.182;2023-06-19T05:31:18;97631.25;;;21.47;67.04
38852;BME280;24605;50.092;9.182;2023-06-19T05:33:45;97631.22;;;21.41;67.88
38852;BME280;24605;50.092;9.182;2023-06-19T05:36:12;97598.25;;;21.31;67.44
38852;BME280;24605;50.092;9.182;2023-06-19T05:38:39;97641.22;;;21.34;68.65
38852;BME280;24605;50.092;9.182;2023-06-19T05:41:08;97645.16;;;21.49;68.18
38852;BME280;24605;50.092;9.182;2023-06-19T05:43:34;97645.72;;;21.51;68.13
38852;BME280;24605;50.092;9.182;2023-06-19T05:46:01;97645.94;;;21.66;67.83
38852;BME280;24605;50.092;9.182;2023-06-19T05:48:27;97647.78;;;21.66;68.11
38852;BME280;24605;50.092;9.182;2023-06-19T05:50:54;97649.66;;;21.65;68.19
38852;BME280;24605;50.092;9.182;2023-06-19T05:53:20;97655.25;;;21.86;67.56
38852;BME280;24605;50.092;9.182;2023-06-19T05:55:47;97650.31;;;22.00;66.88
38852;BME280;24605;50.092;9.182;2023-06-19T05:58:15;97647.00;;;22.15;66.04
38852;BME280;24605;50.092;9.182;2023-06-19T06:00:45;97642.97;;;21.85;67.29
38852;BME280;24605;50.092;9.182;2023-06-19T06:03:11;97642.69;;;21.86;67.47
38852;BME280;24605;50.092;9.182;2023-06-19T06:05:38;97645.09;;;22.10;67.05
38852;BME280;24605;50.092;9.182;2023-06-19T06:08:05;97645.81;;;22.55;65.05
38852;BME280;24605;50.092;9.182;2023-06-19T06:10:33;97636.13;;;22.49;64.65
38852;BME280;24605;50.092;9.182;2023-06-19T06:12:59;97647.78;;;22.70;64.62
38852;BME280;24605;50.092;9.182;2023-06-19T06:15:27;97627.88;;;22.50;65.16
38852;BME280;24605;50.092;9.182;2023-06-19T06:17:53;97653.00;;;22.87;64.12
38852;BME280;24605;50.092;9.182;2023-06-19T06:20:20;97652.75;;;22.89;63.29
38852;BME280;24605;50.092;9.182;2023-06-19T06:22:46;97644.81;;;22.66;64.00
38852;BME280;24605;50.092;9.182;2023-06-19T06:25:13;97642.53;;;22.80;64.28
38852;BME280;24605;50.092;9.182;2023-06-19T06:27:40;97621.88;;;22.71;64.97
38852;BME280;24605;50.092;9.182;2023-06-19T06:30:08;97651.59;;;22.79;65.31
38852;BME280;24605;50.092;9.182;2023-06-19T06:32:37;97648.31;;;23.05;64.69
38852;BME280;24605;50.092;9.182;2023-06-19T06:35:05;97647.22;;;23.00;64.55
38852;BME280;24605;50.092;9.182;2023-06-19T06:37:32;97646.38;;;22.95;66.19
38852;BME280;24605;50.092;9.182;2023-06-19T06:39:58;97655.97;;;22.91;66.44
38852;BME280;24605;50.092;9.182;2023-06-19T06:42:25;97648.94;;;22.79;66.17
38852;BME280;24605;50.092;9.182;2023-06-19T06:44:51;97664.66;;;22.76;68.02
38852;BME280;24605;50.092;9.182;2023-06-19T06:47:18;97671.16;;;22.52;69.01
38852;BME280;24605;50.092;9.182;2023-06-19T06:49:46;97678.69;;;22.56;69.22
38852;BME280;24605;50.092;9.182;2023-06-19T06:52:12;97647.94;;;22.53;68.39
38852;BME280;24605;50.092;9.182;2023-06-19T06:54:38;97669.91;;;22.98;67.37
38852;BME280;24605;50.092;9.182;2023-06-19T06:57:05;97665.75;;;23.12;67.09
38852;BME280;24605;50.092;9.182;2023-06-19T06:59:31;97668.47;;;23.66;65.60
38852;BME280;24605;50.092;9.182;2023-06-19T07:01:58;97677.16;;;23.35;65.99
38852;BME280;24605;50.092;9.182;2023-06-19T07:04:24;97673.06;;;23.22;66.37
38852;BME280;24605;50.092;9.182;2023-06-19T07:06:52;97685.09;;;23.25;67.14
38852;BME280;24605;50.092;9.182;2023-06-19T07:09:18;97677.84;;;23.68;65.66
38852;BME280;24605;50.092;9.182;2023-06-19T07:11:46;97673.63;;;23.83;65.33
38852;BME280;24605;50.092;9.182;2023-06-19T07:14:13;97669.06;;;23.78;65.40
38852;BME280;24605;50.092;9.182;2023-06-19T07:16:39;97677.97;;;23.94;64.17
38852;BME280;24605;50.092;9.182;2023-06-19T07:19:06;97680.63;;;23.94;64.22
38852;BME280;24605;50.092;9.182;2023-06-19T07:21:32;97673.91;;;23.86;63.92
38852;BME280;24605;50.092;9.182;2023-06-19T07:24:01;97678.38;;;23.65;65.27
38852;BME280;24605;50.092;9.182;2023-06-19T07:26:27;97672.25;;;23.70;65.04
38852;BME280;24605;50.092;9.182;2023-06-19T07:28:54;97672.53;;;23.78;64.53
38852;BME280;24605;50.092;9.182;2023-06-19T07:31:20;97649.44;;;23.62;64.74
38852;BME280;24605;50.092;9.182;2023-06-19T07:33:46;97667.31;;;24.09;65.13
38852;BME280;24605;50.092;9.182;2023-06-19T07:36:13;97678.31;;;24.13;64.10
38852;BME280;24605;50.092;9.182;2023-06-19T07:38:42;97681.75;;;23.98;65.04
38852;BME280;24605;50.092;9.182;2023-06-19T07:41:10;97677.78;;;24.21;64.62
38852;BME280;24605;50.092;9.182;2023-06-19T07:43:36;97681.09;;;24.80;62.78
38852;BME280;24605;50.092;9.182;2023-06-19T07:46:03;97672.78;;;24.71;62.34
38852;BME280;24605;50.092;9.182;2023-06-19T07:48:30;97682.66;;;24.61;62.67
38852;BME280;24605;50.092;9.182;2023-06-19T07:50:56;97675.38;;;24.25;62.49
38852;BME280;24605;50.092;9.182;2023-06-19T07:53:23;97672.47;;;24.52;62.45
38852;BME280;24605;50.092;9.182;2023-06-19T07:55:49;97679.97;;;24.45;62.14
38852;BME280;24605;50.092;9.182;2023-06-19T07:58:17;97671.94;;;24.50;62.50
38852;BME280;24605;50.092;9.182;2023-06-19T08:00:44;97672.72;;;24.35;61.85
38852;BME280;24605;50.092;9.182;2023-06-19T08:03:10;97676.72;;;24.28;62.99
38852;BME280;24605;50.092;9.182;2023-06-19T08:05:37;97683.69;;;24.34;62.99
38852;BME280;24605;50.092;9.182;2023-06-19T08:08:04;97684.81;;;24.59;62.29
38852;BME280;24605;50.092;9.182;2023-06-19T08:10:30;97680.81;;;24.82;61.65
38852;BME280;24605;50.092;9.182;2023-06-19T08:12:57;97676.50;;;24.55;62.55
38852;BME280;24605;50.092;9.182;2023-06-19T08:15:24;97686.69;;;24.63;62.65
38852;BME280;24605;50.092;9.182;2023-06-19T08:17:51;97697.69;;;24.77;62.21
38852;BME280;24605;50.092;9.182;2023-06-19T08:20:18;97700.13;;;24.68;62.83
38852;BME280;24605;50.092;9.182;2023-06-19T08:22:45;97701.44;;;24.66;61.93
38852;BME280;24605;50.092;9.182;2023-06-19T08:25:11;97704.66;;;24.58;61.77
38852;BME280;24605;50.092;9.182;2023-06-19T08:27:38;97700.66;;;24.86;61.72
38852;BME280;24605;50.092;9.182;2023-06-19T08:30:06;97700.34;;;25.34;61.20
38852;BME280;24605;50.092;9.182;2023-06-19T08:32:34;97702.03;;;24.68;63.03
38852;BME280;24605;50.092;9.182;2023-06-19T08:35:00;97700.63;;;24.45;63.44
38852;BME280;24605;50.092;9.182;2023-06-19T08:37:26;97694.66;;;24.22;62.90
38852;BME280;24605;50.092;9.182;2023-06-19T08:39:53;97703.28;;;24.34;64.75
38852;BME280;24605;50.092;9.182;2023-06-19T08:42:20;97712.66;;;24.37;64.73
38852;BME280;24605;50.092;9.182;2023-06-19T08:44:48;97704.38;;;24.59;63.26
38852;BME280;24605;50.092;9.182;2023-06-19T08:47:14;97707.91;;;24.80;62.74
38852;BME280;24605;50.092;9.182;2023-06-19T08:49:43;97695.28;;;24.55;63.64
38852;BME280;24605;50.092;9.182;2023-06-19T08:52:09;97704.69;;;24.83;62.97
38852;BME280;24605;50.092;9.182;2023-06-19T08:54:36;97703.06;;;24.72;62.92
38852;BME280;24605;50.092;9.182;2023-06-19T08:57:09;97711.94;;;24.93;62.18
38852;BME280;24605;50.092;9.182;2023-06-19T08:59:35;97711.13;;;24.82;61.57
38852;BME280;24605;50.092;9.182;2023-06-19T09:02:02;97711.41;;;24.96;60.84
38852;BME280;24605;50.092;9.182;2023-06-19T09:04:28;97725.34;;;24.98;60.92
38852;BME280;24605;50.092;9.182;2023-06-19T09:06:58;97712.22;;;25.02;61.79
38852;BME280;24605;50.092;9.182;2023-06-19T09:09:26;97706.00;;;24.60;61.89
38852;BME280;24605;50.092;9.182;2023-06-19T09:12:00;97724.00;;;24.91;62.37
38852;BME280;24605;50.092;9.182;2023-06-19T09:14:33;97715.13;;;25.26;61.94
38852;BME280;24605;50.092;9.182;2023-06-19T09:17:01;97728.25;;;25.48;61.38
38852;BME280;24605;50.092;9.182;2023-06-19T09:19:28;97733.91;;;25.31;61.35
38852;BME280;24605;50.092;9.182;2023-06-19T09:22:00;97737.00;;;25.95;59.47
38852;BME280;24605;50.092;9.182;2023-06-19T09:24:33;97734.94;;;25.67;58.92
38852;BME280;24605;50.092;9.182;2023-06-19T09:27:06;97730.44;;;25.26;61.53
38852;BME280;24605;50.092;9.182;2023-06-19T09:29:36;97730.44;;;25.21;62.34
38852;BME280;24605;50.092;9.182;2023-06-19T09:32:13;97724.56;;;25.03;61.38
38852;BME280;24605;50.092;9.182;2023-06-19T09:34:40;97735.78;;;25.26;61.53
38852;BME280;24605;50.092;9.182;2023-06-19T09:37:08;97711.09;;;25.55;60.36
38852;BME280;24605;50.092;9.182;2023-06-19T09:39:36;97722.91;;;25.54;59.78
38852;BME280;24605;50.092;9.182;2023-06-19T09:42:06;97725.56;;;25.48;60.99
38852;BME280;24605;50.092;9.182;2023-06-19T09:44:39;97719.72;;;25.21;61.64
38852;BME280;24605;50.092;9.182;2023-06-19T09:47:13;97704.69;;;24.78;62.81
38852;BME280;24605;50.092;9.182;2023-06-19T09:49:43;97732.28;;;25.30;62.51
38852;BME280;24605;50.092;9.182;2023-06-19T09:52:15;97726.22;;;26.01;59.98
38852;BME280;24605;50.092;9.182;2023-06-19T09:54:43;97717.91;;;25.92;59.82
38852;BME280;24605;50.092;9.182;2023-06-19T09:57:10;97718.19;;;25.90;59.03
38852;BME280;24605;50.092;9.182;2023-06-19T09:59:38;97714.25;;;25.67;59.63
38852;BME280;24605;50.092;9.182;2023-06-19T10:02:06;97712.13;;;25.64;59.62
38852;BME280;24605;50.092;9.182;2023-06-19T10:04:41;97714.22;;;25.77;60.01
38852;BME280;24605;50.092;9.182;2023-06-19T10:07:16;97735.84;;;26.07;59.46
38852;BME280;24605;50.092;9.182;2023-06-19T10:09:55;97725.53;;;26.35;58.62
38852;BME280;24605;50.092;9.182;2023-06-19T10:12:22;97735.88;;;26.12;58.44
38852;BME280;24605;50.092;9.182;2023-06-19T10:14:48;97738.09;;;25.84;58.51
38852;BME280;24605;50.092;9.182;2023-06-19T10:17:16;97726.06;;;25.66;59.96
38852;BME280;24605;50.092;9.182;2023-06-19T10:19:49;97728.22;;;25.69;59.81
38852;BME280;24605;50.092;9.182;2023-06-19T10:22:20;97678.31;;;25.58;60.38
38852;BME280;24605;50.092;9.182;2023-06-19T10:24:49;97735.34;;;26.10;59.95
38852;BME280;24605;50.092;9.182;2023-06-19T10:27:21;97735.59;;;26.03;59.77
38852;BME280;24605;50.092;9.182;2023-06-19T10:29:52;97717.09;;;25.96;59.59
38852;BME280;24605;50.092;9.182;2023-06-19T10:32:19;97727.09;;;25.86;60.54
38852;BME280;24605;50.092;9.182;2023-06-19T10:34:46;97729.47;;;25.92;59.97
38852;BME280;24605;50.092;9.182;2023-06-19T10:37:14;97730.06;;;25.84;58.30
38852;BME280;24605;50.092;9.182;2023-06-19T10:39:42;97734.59;;;26.49;58.23
38852;BME280;24605;50.092;9.182;2023-06-19T10:42:09;97728.13;;;26.50;55.64
38852;BME280;24605;50.092;9.182;2023-06-19T10:44:36;97723.28;;;26.52;56.89
38852;BME280;24605;50.092;9.182;2023-06-19T10:47:04;97727.16;;;26.36;57.24
38852;BME280;24605;50.092;9.182;2023-06-19T10:49:30;97730.56;;;26.47;57.05
38852;BME280;24605;50.092;9.182;2023-06-19T10:51:59;97704.09;;;26.69;56.32
38852;BME280;24605;50.092;9.182;2023-06-19T10:54:27;97719.81;;;26.92;55.02
38852;BME280;24605;50.092;9.182;2023-06-19T10:56:55;97725.00;;;27.47;54.40
38852;BME280;24605;50.092;9.182;2023-06-19T10:59:22;97727.44;;;28.16;52.01
38852;BME280;24605;50.092;9.182;2023-06-19T11:01:50;97724.38;;;27.79;52.96
38852;BME280;24605;50.092;9.182;2023-06-19T11:04:16;97722.28;;;27.17;53.54
38852;BME280;24605;50.092;9.182;2023-06-19T11:06:44;97728.19;;;26.85;55.01
38852;BME280;24605;50.092;9.182;2023-06-19T11:09:12;97722.97;;;26.99;54.20
38852;BME280;24605;50.092;9.182;2023-06-19T11:11:39;97724.25;;;26.67;54.56
38852;BME280;24605;50.092;9.182;2023-06-19T11:14:09;97719.59;;;26.83;55.61
38852;BME280;24605;50.092;9.182;2023-06-19T11:16:39;97721.84;;;26.65;55.62
38852;BME280;24605;50.092;9.182;2023-06-19T11:19:07;97714.31;;;27.02;55.15
38852;BME280;24605;50.092;9.182;2023-06-19T11:21:35;97720.28;;;26.99;54.21
38852;BME280;24605;50.092;9.182;2023-06-19T11:24:04;97704.22;;;27.18;54.25
38852;BME280;24605;50.092;9.182;2023-06-19T11:26:35;97719.25;;;27.24;53.69
38852;BME280;24605;50.092;9.182;2023-06-19T11:29:14;97719.25;;;27.24;54.15
38852;BME280;24605;50.092;9.182;2023-06-19T11:31:41;97725.88;;;27.37;54.21
38852;BME280;24605;50.092;9.182;2023-06-19T11:34:08;97718.38;;;27.04;54.87
38852;BME280;24605;50.092;9.182;2023-06-19T11:36:36;97715.34;;;27.41;53.15
38852;BME280;24605;50.092;9.182;2023-06-19T11:39:03;97712.88;;;27.68;52.68
38852;BME280;24605;50.092;9.182;2023-06-19T11:41:34;97717.19;;;28.18;51.51
38852;BME280;24605;50.092;9.182;2023-06-19T11:44:02;97715.13;;;27.61;52.39
38852;BME280;24605;50.092;9.182;2023-06-19T11:46:31;97712.66;;;27.41;52.70
38852;BME280;24605;50.092;9.182;2023-06-19T11:49:09;97713.13;;;27.18;53.47
38852;BME280;24605;50.092;9.182;2023-06-19T11:51:36;97714.00;;;27.43;53.70
38852;BME280;24605;50.092;9.182;2023-06-19T11:54:05;97708.69;;;27.81;51.84
38852;BME280;24605;50.092;9.182;2023-06-19T11:56:32;97707.00;;;27.66;52.81
38852;BME280;24605;50.092;9.182;2023-06-19T11:58:59;97699.78;;;27.62;53.24
38852;BME280;24605;50.092;9.182;2023-06-19T12:01:26;97707.34;;;27.84;50.47
38852;BME280;24605;50.092;9.182;2023-06-19T12:03:53;97711.44;;;28.01;50.77
38852;BME280;24605;50.092;9.182;2023-06-19T12:06:20;97710.84;;;28.04;50.53
38852;BME280;24605;50.092;9.182;2023-06-19T12:08:47;97671.78;;;28.44;48.51
38852;BME280;24605;50.092;9.182;2023-06-19T12:11:13;97708.06;;;28.90;48.04
38852;BME280;24605;50.092;9.182;2023-06-19T12:13:40;97711.25;;;28.92;47.28
38852;BME280;24605;50.092;9.182;2023-06-19T12:16:06;97710.78;;;28.52;48.03
38852;BME280;24605;50.092;9.182;2023-06-19T12:18:33;97707.63;;;28.64;47.69
38852;BME280;24605;50.092;9.182;2023-06-19T12:21:01;97713.06;;;27.77;49.25
38852;BME280;24605;50.092;9.182;2023-06-19T12:23:27;97707.69;;;27.77;49.56
38852;BME280;24605;50.092;9.182;2023-06-19T12:25:54;97704.72;;;28.22;48.54
38852;BME280;24605;50.092;9.182;2023-06-19T12:28:20;97679.53;;;27.89;48.77
38852;BME280;24605;50.092;9.182;2023-06-19T12:30:47;97707.69;;;27.53;50.10
38852;BME280;24605;50.092;9.182;2023-06-19T12:33:17;97713.50;;;27.36;50.79
38852;BME280;24605;50.092;9.182;2023-06-19T12:35:44;97711.91;;;27.59;50.25
38852;BME280;24605;50.092;9.182;2023-06-19T12:38:12;97706.28;;;28.04;49.26
38852;BME280;24605;50.092;9.182;2023-06-19T12:40:39;97713.06;;;28.02;48.94
38852;BME280;24605;50.092;9.182;2023-06-19T12:43:05;97709.44;;;28.11;47.66
38852;BME280;24605;50.092;9.182;2023-06-19T12:45:32;97710.84;;;28.04;45.26
38852;BME280;24605;50.092;9.182;2023-06-19T12:47:59;97708.44;;;28.07;46.13
38852;BME280;24605;50.092;9.182;2023-06-19T12:50:25;97711.38;;;28.06;47.19
38852;BME280;24605;50.092;9.182;2023-06-19T12:52:52;97702.34;;;28.92;46.14
38852;BME280;24605;50.092;9.182;2023-06-19T12:55:19;97701.31;;;28.88;45.77
38852;BME280;24605;50.092;9.182;2023-06-19T12:57:46;97706.88;;;29.72;44.80
38852;BME280;24605;50.092;9.182;2023-06-19T13:00:13;97681.28;;;29.69;42.96
38852;BME280;24605;50.092;9.182;2023-06-19T13:02:40;97703.09;;;29.59;44.05